Time;durP1;ratioP1;P1;durP2;ratioP2;P2;SDS_P1;SDS_P2;PMS_P1;PMS_P2;Temp;Humidity;BMP_temperature;BMP_pressure;BME280_temperature;BME280_humidity;BME280_pressure;Samples;Min_cycle;Max_cycle;Signal;HPM_P1;HPM_P2
2022/05/09 00:01:05;;;;;;;12.20;3.60;;;12.50;99.90;;;;;;5099263;28;20107;-68
2022/05/09 00:03:40;;;;;;;8.45;3.40;;;12.50;99.90;;;;;;5098340;28;20060;-69
2022/05/09 00:06:06;;;;;;;7.75;3.17;;;12.50;99.90;;;;;;5099619;28;20028;-68
2022/05/09 00:08:37;;;;;;;11.52;3.30;;;12.50;99.90;;;;;;5099410;28;20036;-68
2022/05/09 00:11:04;;;;;;;7.68;3.25;;;12.40;99.90;;;;;;5098968;28;20464;-69
2022/05/09 00:13:29;;;;;;;8.88;3.88;;;12.40;99.90;;;;;;5098906;28;20115;-69
2022/05/09 00:15:55;;;;;;;9.73;3.38;;;12.30;99.90;;;;;;5099425;28;20036;-68
2022/05/09 00:18:21;;;;;;;9.13;3.22;;;12.20;99.90;;;;;;5098220;28;20035;-68
2022/05/09 00:20:47;;;;;;;8.55;3.40;;;12.20;99.90;;;;;;5098576;28;20047;-69
2022/05/09 00:23:16;;;;;;;8.98;3.60;;;12.20;99.90;;;;;;5098606;28;20028;-68
2022/05/09 00:25:42;;;;;;;7.22;3.60;;;12.20;99.90;;;;;;5098546;28;20034;-68
2022/05/09 00:28:08;;;;;;;9.30;3.78;;;12.10;99.90;;;;;;5098514;28;20115;-68
2022/05/09 00:30:33;;;;;;;9.68;3.55;;;12.10;99.90;;;;;;5098582;28;20059;-68
2022/05/09 00:32:59;;;;;;;11.07;4.15;;;12.10;99.90;;;;;;5098373;28;20108;-69
2022/05/09 00:35:28;;;;;;;11.70;3.60;;;12.00;99.90;;;;;;5098427;28;20300;-69
2022/05/09 00:37:54;;;;;;;12.70;4.22;;;12.00;99.90;;;;;;5098424;28;20020;-69
2022/05/09 00:40:19;;;;;;;5.93;3.30;;;12.00;99.90;;;;;;5097570;28;20055;-69
2022/05/09 00:42:54;;;;;;;7.90;3.75;;;11.90;99.90;;;;;;5097300;28;20036;-69
2022/05/09 00:45:24;;;;;;;7.85;3.75;;;11.90;99.90;;;;;;5098246;28;20032;-68
2022/05/09 00:47:50;;;;;;;9.85;3.72;;;12.00;99.90;;;;;;5097704;28;20287;-69
2022/05/09 00:50:25;;;;;;;9.05;3.78;;;12.00;99.90;;;;;;5098203;28;20058;-69
2022/05/09 00:53:01;;;;;;;13.35;4.10;;;11.90;99.90;;;;;;5098009;28;20032;-69
2022/05/09 00:55:42;;;;;;;9.30;3.63;;;11.90;99.90;;;;;;5098586;28;20354;-69
2022/05/09 00:58:14;;;;;;;10.43;3.88;;;11.80;99.90;;;;;;5097985;28;20063;-69
2022/05/09 01:00:43;;;;;;;9.20;3.78;;;11.80;99.90;;;;;;5098205;28;20403;-69
2022/05/09 01:03:42;;;;;;;7.05;4.05;;;11.80;99.90;;;;;;5098066;28;20087;-69
2022/05/09 01:06:09;;;;;;;9.25;3.78;;;11.80;99.90;;;;;;5096628;28;20046;-69
2022/05/09 01:08:36;;;;;;;8.40;3.90;;;11.90;99.90;;;;;;5097864;28;20059;-69
2022/05/09 01:11:10;;;;;;;8.35;3.92;;;11.80;99.90;;;;;;5097095;28;20036;-69
2022/05/09 01:13:41;;;;;;;13.15;4.05;;;11.70;99.90;;;;;;5097804;28;20032;-69
2022/05/09 01:16:08;;;;;;;7.85;3.97;;;11.70;99.90;;;;;;5097812;28;20354;-69
2022/05/09 01:18:36;;;;;;;7.55;4.05;;;11.70;99.90;;;;;;5097657;28;20036;-69
2022/05/09 01:21:21;;;;;;;9.73;4.18;;;11.70;99.90;;;;;;5098062;28;20039;-69
2022/05/09 01:23:47;;;;;;;9.38;4.47;;;11.60;99.90;;;;;;5097506;28;20348;-69
2022/05/09 01:26:13;;;;;;;9.35;4.10;;;11.60;99.90;;;;;;5097520;28;20024;-69
2022/05/09 01:28:40;;;;;;;15.10;4.40;;;11.50;99.90;;;;;;5096702;28;20429;-69
2022/05/09 01:31:12;;;;;;;7.55;3.67;;;11.50;99.90;;;;;;5096880;28;20237;-69
2022/05/09 01:33:42;;;;;;;9.00;4.10;;;11.50;99.90;;;;;;5097598;28;20327;-69
2022/05/09 01:36:30;;;;;;;7.93;3.85;;;11.50;99.90;;;;;;5097368;28;20070;-69
2022/05/09 01:38:57;;;;;;;9.35;4.30;;;11.40;99.90;;;;;;5097366;28;20064;-69
2022/05/09 01:41:25;;;;;;;8.10;4.20;;;11.40;99.90;;;;;;5097330;28;20042;-69
2022/05/09 01:43:54;;;;;;;8.52;4.18;;;11.30;99.90;;;;;;5097126;28;20063;-68
2022/05/09 01:46:28;;;;;;;11.57;3.90;;;11.30;99.90;;;;;;5097373;28;20336;-69
2022/05/09 01:51:42;;;;;;;10.18;4.70;;;11.30;99.90;;;;;;5097103;28;20119;-69
2022/05/09 01:54:09;;;;;;;8.68;4.40;;;11.30;99.90;;;;;;5097205;28;20092;-69
2022/05/09 01:56:41;;;;;;;11.57;4.55;;;11.10;99.90;;;;;;5097033;28;20115;-69
2022/05/09 01:59:12;;;;;;;8.98;4.45;;;11.20;99.90;;;;;;5097181;28;20070;-69
2022/05/09 02:01:44;;;;;;;10.27;4.32;;;11.20;99.90;;;;;;5097025;28;20400;-69
2022/05/09 02:04:11;;;;;;;11.57;4.70;;;11.10;99.90;;;;;;5096251;28;20104;-69
2022/05/09 02:06:38;;;;;;;9.60;4.40;;;11.10;99.90;;;;;;5096915;28;20028;-69
2022/05/09 02:09:07;;;;;;;9.15;4.75;;;11.10;99.90;;;;;;5097780;28;20052;-68
2022/05/09 02:11:33;;;;;;;11.90;4.45;;;11.10;99.90;;;;;;5096940;28;20317;-68
2022/05/09 02:13:59;;;;;;;9.85;4.57;;;11.10;99.90;;;;;;5096875;28;20031;-69
2022/05/09 02:16:25;;;;;;;8.98;4.35;;;11.20;99.90;;;;;;5096888;28;20054;-69
2022/05/09 02:18:51;;;;;;;8.07;4.55;;;11.10;99.90;;;;;;5096008;28;20109;-69
2022/05/09 02:21:17;;;;;;;11.38;4.78;;;11.10;99.90;;;;;;5096418;28;20445;-69
2022/05/09 02:23:43;;;;;;;10.43;4.63;;;11.10;99.90;;;;;;5096101;28;20464;-69
2022/05/09 02:26:09;;;;;;;10.32;4.63;;;11.10;99.90;;;;;;5096798;28;20020;-69
2022/05/09 02:28:36;;;;;;;11.13;5.05;;;11.00;99.90;;;;;;5096612;28;20038;-69
2022/05/09 02:31:02;;;;;;;9.23;4.53;;;11.00;99.90;;;;;;5097045;28;20020;-69
2022/05/09 02:33:28;;;;;;;10.88;4.90;;;10.90;99.90;;;;;;5096233;28;20318;-69
2022/05/09 02:35:54;;;;;;;8.73;4.60;;;11.10;99.90;;;;;;5096659;28;20419;-69
2022/05/09 02:38:21;;;;;;;9.60;4.72;;;11.10;99.90;;;;;;5096720;28;20020;-69
2022/05/09 02:40:48;;;;;;;11.40;4.75;;;11.00;99.90;;;;;;5096896;28;20028;-69
2022/05/09 02:43:14;;;;;;;9.95;5.00;;;11.00;99.90;;;;;;5096424;28;20040;-69
2022/05/09 02:45:40;;;;;;;9.35;4.82;;;10.90;99.90;;;;;;5096496;28;20032;-69
2022/05/09 02:48:07;;;;;;;11.55;4.78;;;10.90;99.90;;;;;;5096689;28;20107;-69
2022/05/09 02:50:33;;;;;;;6.43;4.55;;;10.80;99.90;;;;;;5096285;28;20300;-69
2022/05/09 02:52:59;;;;;;;10.52;5.32;;;10.80;99.90;;;;;;5096535;28;20068;-69
2022/05/09 02:55:24;;;;;;;11.20;5.15;;;10.70;99.90;;;;;;5096524;28;20043;-69
2022/05/09 02:57:51;;;;;;;12.85;5.10;;;10.70;99.90;;;;;;5096312;28;20101;-69
2022/05/09 03:00:23;;;;;;;7.85;4.97;;;10.60;99.90;;;;;;5095601;28;20105;-69
2022/05/09 03:05:37;;;;;;;11.88;5.25;;;10.50;99.90;;;;;;5095945;28;20028;-69
2022/05/09 03:08:03;;;;;;;10.57;5.05;;;10.50;99.90;;;;;;5096329;28;20043;-70
2022/05/09 03:10:31;;;;;;;8.48;4.90;;;10.50;99.90;;;;;;5096360;28;20032;-69
2022/05/09 03:13:01;;;;;;;16.00;5.38;;;10.50;99.90;;;;;;5096207;28;20040;-69
2022/05/09 03:15:28;;;;;;;12.00;5.07;;;10.50;99.90;;;;;;5097150;28;20117;-69
2022/05/09 03:17:55;;;;;;;12.98;5.85;;;10.50;99.90;;;;;;5099980;28;20028;-70
2022/05/09 03:20:22;;;;;;;14.88;5.70;;;10.50;99.90;;;;;;5100211;28;20028;-69
2022/05/09 03:22:52;;;;;;;10.25;5.30;;;10.50;99.90;;;;;;5099703;28;20028;-69
2022/05/09 03:25:19;;;;;;;11.43;5.82;;;10.50;99.90;;;;;;5099700;28;20085;-69
2022/05/09 03:27:45;;;;;;;11.38;4.97;;;10.40;99.90;;;;;;5099537;28;20039;-70
2022/05/09 03:30:14;;;;;;;11.15;5.22;;;10.40;99.90;;;;;;5099176;28;20035;-69
2022/05/09 03:32:40;;;;;;;11.57;5.53;;;10.40;99.90;;;;;;5098958;28;20036;-69
2022/05/09 03:35:08;;;;;;;10.27;5.13;;;10.40;99.90;;;;;;5099133;28;20024;-69
2022/05/09 03:37:34;;;;;;;10.25;5.75;;;10.30;99.90;;;;;;5099611;28;20027;-69
2022/05/09 03:40:05;;;;;;;11.18;5.60;;;10.40;99.90;;;;;;5099008;28;20044;-70
2022/05/09 03:42:31;;;;;;;10.90;5.10;;;10.40;99.90;;;;;;5099407;28;20340;-69
2022/05/09 03:44:57;;;;;;;12.98;5.55;;;10.40;99.90;;;;;;5099497;28;20043;-69
2022/05/09 03:47:23;;;;;;;14.68;6.05;;;10.30;99.90;;;;;;5098971;28;20308;-70
2022/05/09 03:49:50;;;;;;;10.50;5.22;;;10.30;99.90;;;;;;5098436;28;20118;-69
2022/05/09 03:52:17;;;;;;;9.70;5.28;;;10.30;99.90;;;;;;5098730;28;20035;-70
2022/05/09 03:54:42;;;;;;;12.77;5.53;;;10.30;99.90;;;;;;5099011;28;20124;-70
2022/05/09 03:57:08;;;;;;;9.18;5.63;;;10.40;99.90;;;;;;5099733;28;20024;-69
2022/05/09 03:59:36;;;;;;;7.88;5.22;;;10.40;99.90;;;;;;5099738;28;20411;-70
2022/05/09 04:02:02;;;;;;;12.20;6.18;;;10.40;99.90;;;;;;5098902;28;20032;-70
2022/05/09 04:04:27;;;;;;;9.30;5.20;;;10.30;99.90;;;;;;5100086;28;20036;-69
2022/05/09 04:06:53;;;;;;;9.60;5.25;;;10.30;99.90;;;;;;5099241;28;20360;-70
2022/05/09 04:09:20;;;;;;;14.02;5.80;;;10.30;99.90;;;;;;5100471;28;20027;-70
2022/05/09 04:11:47;;;;;;;13.07;5.53;;;10.30;99.90;;;;;;5100511;28;20418;-69
2022/05/09 04:14:14;;;;;;;12.05;5.68;;;10.30;99.90;;;;;;5100453;28;20032;-70
2022/05/09 04:16:50;;;;;;;11.48;5.90;;;10.40;99.90;;;;;;5100057;28;20024;-70
2022/05/09 04:19:20;;;;;;;10.95;5.50;;;10.40;99.90;;;;;;5099326;28;20028;-70
2022/05/09 04:21:46;;;;;;;9.73;5.55;;;10.30;99.90;;;;;;5099424;28;20411;-70
2022/05/09 04:24:13;;;;;;;8.43;5.20;;;10.30;99.90;;;;;;5099961;28;20043;-70
2022/05/09 04:26:39;;;;;;;8.63;5.18;;;10.20;99.90;;;;;;5098542;28;20024;-70
2022/05/09 04:29:06;;;;;;;8.98;5.82;;;10.20;99.90;;;;;;5098248;28;20016;-70
2022/05/09 04:31:33;;;;;;;12.60;6.10;;;10.20;99.90;;;;;;5099263;28;20118;-70
2022/05/09 04:34:00;;;;;;;9.95;5.50;;;10.30;99.90;;;;;;5100040;28;20055;-70
2022/05/09 04:36:27;;;;;;;15.60;5.82;;;10.40;99.90;;;;;;5099698;28;20440;-70
2022/05/09 04:38:53;;;;;;;11.35;5.60;;;10.40;99.90;;;;;;5100076;28;20043;-70
2022/05/09 04:41:22;;;;;;;10.02;5.40;;;10.40;99.90;;;;;;5099376;28;20174;-70
2022/05/09 04:43:48;;;;;;;14.07;5.78;;;10.40;99.90;;;;;;5098166;28;20113;-70
2022/05/09 04:46:16;;;;;;;9.43;5.80;;;10.50;99.90;;;;;;5098706;28;20111;-70
2022/05/09 04:48:43;;;;;;;10.88;5.45;;;10.50;99.90;;;;;;5098905;28;20051;-70
2022/05/09 04:51:12;;;;;;;12.73;5.32;;;10.50;99.90;;;;;;5098806;28;20330;-70
2022/05/09 04:53:38;;;;;;;10.45;5.57;;;10.50;99.90;;;;;;5098814;28;20039;-70
2022/05/09 04:56:05;;;;;;;10.77;5.35;;;10.60;99.90;;;;;;5098757;28;20069;-70
2022/05/09 04:58:31;;;;;;;7.82;5.18;;;10.60;99.90;;;;;;5098524;28;20410;-70
2022/05/09 05:00:57;;;;;;;14.02;5.90;;;10.60;99.90;;;;;;5098721;28;20112;-70
2022/05/09 05:03:24;;;;;;;13.23;5.53;;;10.70;99.90;;;;;;5098217;28;20024;-70
2022/05/09 05:05:53;;;;;;;9.57;5.57;;;10.60;99.90;;;;;;5098511;28;20028;-70
2022/05/09 05:08:20;;;;;;;12.95;5.60;;;10.70;99.90;;;;;;5098302;28;20118;-70
2022/05/09 05:10:52;;;;;;;11.30;4.90;;;10.70;99.90;;;;;;5097720;28;20028;-70
2022/05/09 05:13:20;;;;;;;11.93;5.77;;;10.70;99.90;;;;;;5098110;28;20058;-70
2022/05/09 05:15:47;;;;;;;7.53;4.95;;;10.80;99.90;;;;;;5098600;28;20024;-70
2022/05/09 05:18:21;;;;;;;12.18;5.53;;;10.90;99.90;;;;;;5081325;28;20135;-70
2022/05/09 05:20:48;;;;;;;12.02;5.32;;;10.90;99.90;;;;;;5098414;28;20400;-70
2022/05/09 05:23:14;;;;;;;9.98;5.22;;;10.90;99.90;;;;;;5097814;28;20036;-70
2022/05/09 05:25:41;;;;;;;13.73;5.88;;;11.00;99.90;;;;;;5098092;28;20142;-70
2022/05/09 05:28:08;;;;;;;13.75;5.38;;;11.00;99.90;;;;;;5097881;28;20035;-70
2022/05/09 05:30:35;;;;;;;8.30;5.13;;;11.10;99.90;;;;;;5097947;28;20269;-70
2022/05/09 05:33:03;;;;;;;9.85;5.30;;;11.20;99.90;;;;;;5097657;28;20055;-70
2022/05/09 05:35:29;;;;;;;13.95;5.18;;;11.20;99.90;;;;;;5098237;28;20036;-69
2022/05/09 05:37:55;;;;;;;10.32;5.63;;;11.20;99.90;;;;;;5096456;28;20129;-70
2022/05/09 05:40:21;;;;;;;9.77;5.63;;;11.30;99.90;;;;;;5096166;28;20036;-69
2022/05/09 05:42:48;;;;;;;12.82;5.43;;;11.30;99.90;;;;;;5097458;28;20109;-69
2022/05/09 05:45:17;;;;;;;11.65;5.97;;;11.50;99.90;;;;;;5097426;28;20368;-69
2022/05/09 05:47:46;;;;;;;13.68;6.90;;;11.50;99.90;;;;;;5097194;28;20039;-70
2022/05/09 05:50:17;;;;;;;10.85;5.47;;;11.50;99.90;;;;;;5096619;28;20059;-69
2022/05/09 05:52:43;;;;;;;12.32;5.93;;;11.60;99.90;;;;;;5097634;28;20035;-70
2022/05/09 05:55:12;;;;;;;10.10;5.25;;;11.70;99.90;;;;;;5097329;28;20034;-69
2022/05/09 05:57:40;;;;;;;10.95;5.35;;;11.80;99.90;;;;;;5097255;28;20119;-69
2022/05/09 06:00:10;;;;;;;12.75;5.72;;;11.80;99.90;;;;;;5097160;28;20047;-69
2022/05/09 06:02:43;;;;;;;8.95;5.20;;;11.90;99.90;;;;;;5100260;28;20056;-70
2022/05/09 06:05:11;;;;;;;10.10;5.65;;;12.00;99.90;;;;;;5097404;28;20044;-66
2022/05/09 06:07:37;;;;;;;11.60;5.78;;;12.10;99.90;;;;;;5098432;28;20073;-70
2022/05/09 06:10:05;;;;;;;14.43;5.32;;;12.20;99.90;;;;;;5096809;28;20115;-69
2022/05/09 06:12:31;;;;;;;13.50;5.75;;;12.30;99.90;;;;;;5099327;28;20093;-69
2022/05/09 06:17:42;;;;;;;13.50;6.00;;;12.60;99.90;;;;;;5101223;28;20111;-72
2022/05/09 06:20:11;;;;;;;11.75;5.97;;;12.80;99.90;;;;;;5097345;28;20059;-70
2022/05/09 06:22:38;;;;;;;11.15;5.15;;;12.80;99.90;;;;;;5096870;28;20070;-70
2022/05/09 06:25:07;;;;;;;15.75;6.15;;;12.90;99.90;;;;;;5097477;28;20020;-70
2022/05/09 06:27:32;;;;;;;12.25;5.70;;;13.30;99.90;;;;;;5098827;28;20028;-70
2022/05/09 06:30:06;;;;;;;10.57;5.78;;;13.20;99.90;;;;;;5080064;28;20035;-70
2022/05/09 06:32:32;;;;;;;10.75;5.18;;;13.30;99.90;;;;;;5097292;28;20123;-70
2022/05/09 06:35:08;;;;;;;10.90;6.15;;;13.40;99.90;;;;;;5098443;28;20024;-70
2022/05/09 06:37:35;;;;;;;11.07;5.80;;;13.50;99.90;;;;;;5096946;28;20040;-70
2022/05/09 06:40:03;;;;;;;13.07;5.30;;;13.60;99.90;;;;;;5096954;28;20383;-66
2022/05/09 06:42:29;;;;;;;9.68;5.97;;;13.70;99.90;;;;;;5097131;28;20021;-71
2022/05/09 06:44:55;;;;;;;11.13;5.75;;;13.90;99.90;;;;;;5100469;28;20387;-71
2022/05/09 06:47:21;;;;;;;10.68;6.03;;;14.00;99.90;;;;;;5099644;28;20111;-70
2022/05/09 06:49:47;;;;;;;9.77;5.30;;;14.00;99.90;;;;;;5099327;28;20075;-70
2022/05/09 06:52:13;;;;;;;15.13;6.00;;;14.00;99.90;;;;;;5103438;28;20055;-70
2022/05/09 06:54:39;;;;;;;13.05;5.40;;;14.20;99.90;;;;;;5104645;28;20028;-70
2022/05/09 06:57:05;;;;;;;16.40;6.00;;;14.30;99.90;;;;;;5103197;28;20364;-70
2022/05/09 06:59:33;;;;;;;12.95;5.80;;;14.30;99.90;;;;;;5103441;28;20288;-71
2022/05/09 07:01:59;;;;;;;11.65;5.63;;;14.40;99.90;;;;;;5103081;28;20300;-71
2022/05/09 07:04:24;;;;;;;11.68;5.38;;;14.40;99.90;;;;;;5101436;28;20036;-70
2022/05/09 07:06:50;;;;;;;12.88;5.32;;;14.60;99.90;;;;;;5101691;28;20123;-70
2022/05/09 07:09:16;;;;;;;8.70;5.10;;;14.70;99.90;;;;;;5102347;28;20028;-70
2022/05/09 07:11:42;;;;;;;8.07;4.95;;;14.80;99.90;;;;;;5083586;28;20036;-71
2022/05/09 07:14:09;;;;;;;11.98;5.68;;;14.70;99.90;;;;;;5101576;28;20052;-70
2022/05/09 07:16:36;;;;;;;8.45;5.72;;;14.70;99.90;;;;;;5100964;28;20164;-70
2022/05/09 07:19:06;;;;;;;13.60;5.70;;;14.70;99.90;;;;;;5099859;28;20039;-70
2022/05/09 07:21:32;;;;;;;9.80;5.53;;;14.70;99.90;;;;;;5100282;28;20028;-70
2022/05/09 07:23:59;;;;;;;11.27;5.45;;;14.90;99.90;;;;;;5101239;28;20028;-71
2022/05/09 07:26:25;;;;;;;12.48;5.32;;;15.10;99.90;;;;;;5101081;28;20025;-70
2022/05/09 07:28:51;;;;;;;13.07;5.05;;;15.30;99.90;;;;;;5100580;28;20028;-71
2022/05/09 07:31:20;;;;;;;11.88;6.03;;;15.40;99.90;;;;;;5101855;28;20027;-70
2022/05/09 07:33:46;;;;;;;11.55;5.22;;;15.50;99.90;;;;;;5083949;28;20032;-71
2022/05/09 07:36:13;;;;;;;10.63;5.43;;;15.70;99.90;;;;;;5101317;28;20044;-71
2022/05/09 07:38:39;;;;;;;12.27;5.70;;;15.80;99.90;;;;;;5101947;28;20089;-71
2022/05/09 07:41:05;;;;;;;13.60;5.20;;;16.00;99.90;;;;;;5101014;28;20036;-70
2022/05/09 07:43:31;;;;;;;12.40;5.10;;;16.00;99.90;;;;;;5083244;28;20103;-71
2022/05/09 07:45:57;;;;;;;12.63;5.35;;;16.00;99.90;;;;;;5099665;28;20028;-71
2022/05/09 07:48:25;;;;;;;8.68;5.00;;;16.10;99.90;;;;;;5100224;28;20032;-70
2022/05/09 07:50:53;;;;;;;10.65;5.28;;;16.20;99.90;;;;;;5100254;28;20032;-71
2022/05/09 07:53:22;;;;;;;8.98;5.13;;;16.30;99.90;;;;;;5100876;28;20055;-71
2022/05/09 07:55:49;;;;;;;8.50;4.88;;;16.50;99.90;;;;;;5100535;28;20381;-70
2022/05/09 07:58:17;;;;;;;9.23;4.80;;;16.60;99.90;;;;;;5099694;28;20330;-71
2022/05/09 08:00:45;;;;;;;13.25;6.25;;;16.70;99.90;;;;;;5099998;28;20376;-70
2022/05/09 08:03:20;;;;;;;9.38;4.65;;;16.80;99.90;;;;;;5098819;28;20040;-71
2022/05/09 08:05:52;;;;;;;8.40;4.75;;;16.90;99.90;;;;;;5099620;28;20157;-71
2022/05/09 08:08:18;;;;;;;9.43;5.25;;;16.90;99.90;;;;;;5099739;28;20024;-70
2022/05/09 08:10:44;;;;;;;11.98;5.13;;;17.00;99.90;;;;;;5099496;28;20024;-70
2022/05/09 08:13:12;;;;;;;9.85;5.10;;;17.10;99.90;;;;;;5099833;28;20028;-70
2022/05/09 08:15:39;;;;;;;8.93;5.30;;;16.90;99.90;;;;;;5099360;28;20042;-70
2022/05/09 08:18:05;;;;;;;8.35;4.78;;;16.80;99.90;;;;;;5099496;28;20300;-70
2022/05/09 08:20:34;;;;;;;9.90;5.10;;;16.90;99.90;;;;;;5098378;28;20402;-71
2022/05/09 08:23:10;;;;;;;13.80;4.60;;;17.10;99.90;;;;;;5098894;28;20024;-70
2022/05/09 08:25:37;;;;;;;8.68;4.95;;;17.00;99.90;;;;;;5099003;28;20043;-70
2022/05/09 08:28:04;;;;;;;6.53;3.90;;;16.90;99.90;;;;;;5099191;28;20053;-71
2022/05/09 08:30:35;;;;;;;11.00;4.25;;;17.10;99.90;;;;;;5099509;28;20024;-71
2022/05/09 08:33:02;;;;;;;9.88;4.25;;;17.30;99.90;;;;;;5082338;28;20276;-71
2022/05/09 08:35:28;;;;;;;10.20;3.90;;;17.50;99.90;;;;;;5099061;28;20028;-71
2022/05/09 08:37:54;;;;;;;10.48;3.50;;;17.60;99.90;;;;;;5082036;28;20036;-72
2022/05/09 08:40:37;;;;;;;9.25;3.78;;;17.80;99.90;;;;;;5098942;28;20036;-70
2022/05/09 08:43:29;;;;;;;;;;;17.80;99.90;;;;;;5099059;28;20032;-70
2022/05/09 08:46:13;;;;;;;6.50;2.45;;;18.00;99.90;;;;;;5097337;28;20016;-69
2022/05/09 08:49:16;;;;;;;8.23;2.55;;;18.20;99.90;;;;;;5098231;28;20374;-69
2022/05/09 08:52:03;;;;;;;;;;;18.30;99.90;;;;;;5098835;28;20032;-69
2022/05/09 08:54:30;;;;;;;5.43;2.50;;;18.30;99.90;;;;;;5098922;28;19908;-69
2022/05/09 08:57:03;;;;;;;4.35;2.35;;;18.30;99.90;;;;;;5098301;28;20040;-69
2022/05/09 08:59:38;;;;;;;3.65;1.80;;;18.30;99.90;;;;;;5097579;28;20028;-69
2022/05/09 09:02:19;;;;;;;5.90;2.20;;;18.40;99.90;;;;;;5097526;28;20032;-69
2022/05/09 09:04:55;;;;;;;4.97;1.85;;;18.50;99.90;;;;;;5097617;28;20048;-69
2022/05/09 09:07:49;;;;;;;6.60;2.40;;;18.50;99.90;;;;;;5098193;28;20020;-69
2022/05/09 09:10:23;;;;;;;3.30;1.60;;;18.60;99.90;;;;;;5098129;28;20089;-69
2022/05/09 09:13:06;;;;;;;3.85;1.92;;;18.70;99.90;;;;;;5098192;28;20035;-69
2022/05/09 09:15:53;;;;;;;6.80;2.22;;;18.80;99.90;;;;;;5098475;28;20107;-69
2022/05/09 09:18:44;;;;;;;7.03;2.40;;;18.80;99.90;;;;;;5098130;28;20298;-69
2022/05/09 09:21:37;;;;;;;7.03;2.38;;;19.00;99.90;;;;;;5096957;28;20073;-69
2022/05/09 09:24:08;;;;;;;6.35;2.00;;;19.10;99.90;;;;;;5097785;28;20032;-69
2022/05/09 09:27:19;;;;;;;5.70;1.90;;;19.20;99.90;;;;;;5097844;28;20129;-68
2022/05/09 09:29:49;;;;;;;6.10;1.80;;;19.10;99.90;;;;;;5000366;28;20084;-69
2022/05/09 09:32:23;;;;;;;4.25;1.63;;;19.20;99.90;;;;;;5000930;28;20096;-69
2022/05/09 09:34:48;;;;;;;4.60;1.95;;;19.30;99.90;;;;;;5061777;28;20055;-68
2022/05/09 09:37:35;;;;;;;4.50;1.98;;;19.50;99.90;;;;;;5098120;28;20295;-69
2022/05/09 09:40:05;;;;;;;5.05;2.00;;;19.70;99.90;;;;;;5098532;28;20028;-69
2022/05/09 09:42:31;;;;;;;3.58;2.10;;;19.80;99.90;;;;;;5098394;28;20028;-69
2022/05/09 09:45:00;;;;;;;7.88;2.00;;;19.90;99.90;;;;;;5097825;28;20039;-69
2022/05/09 09:47:28;;;;;;;2.85;1.73;;;20.00;99.90;;;;;;5097802;28;20032;-69
2022/05/09 09:50:16;;;;;;;6.00;1.52;;;19.90;99.90;;;;;;5096738;28;20177;-69
2022/05/09 09:52:48;;;;;;;4.15;1.50;;;20.20;99.90;;;;;;5097861;28;20056;-69
2022/05/09 09:55:27;;;;;;;5.15;1.33;;;20.50;99.90;;;;;;5096892;28;20311;-68
2022/05/09 09:57:54;;;;;;;4.40;1.42;;;20.60;99.90;;;;;;5097168;28;20024;-70
2022/05/09 10:00:34;;;;;;;5.82;1.42;;;20.70;99.90;;;;;;5080047;28;20287;-69
2022/05/09 10:03:17;;;;;;;4.45;1.40;;;20.90;99.90;;;;;;5097329;28;20050;-69
2022/05/09 10:05:46;;;;;;;4.68;1.25;;;20.90;99.60;;;;;;5097384;28;20028;-69
2022/05/09 10:08:34;;;;;;;2.15;1.05;;;20.70;99.60;;;;;;5097030;28;20059;-68
2022/05/09 10:11:04;;;;;;;3.35;1.00;;;20.60;98.70;;;;;;5097170;28;20299;-69
2022/05/09 10:13:40;;;;;;;4.13;1.40;;;20.40;98.40;;;;;;5097063;28;20388;-69
2022/05/09 10:16:30;;;;;;;3.30;1.10;;;20.70;99.90;;;;;;5097386;28;20099;-69
2022/05/09 10:19:01;;;;;;;2.05;1.00;;;21.30;98.80;;;;;;5097044;28;20039;-68
2022/05/09 10:24:51;;;;;;;3.65;1.48;;;21.50;96.20;;;;;;5096818;28;20035;-67
2022/05/09 10:27:23;;;;;;;4.93;1.20;;;21.50;97.10;;;;;;5100240;28;20123;-68
2022/05/09 10:29:51;;;;;;;4.18;1.20;;;21.50;96.10;;;;;;5101104;28;20024;-68
2022/05/09 10:32:35;;;;;;;5.13;1.30;;;21.50;95.70;;;;;;5101066;28;20020;-69
2022/05/09 10:35:12;;;;;;;5.95;1.30;;;21.80;94.60;;;;;;5100328;28;20042;-68
2022/05/09 10:37:56;;;;;;;5.05;1.05;;;21.60;93.60;;;;;;5101018;28;20110;-68
2022/05/09 10:40:40;;;;;;;4.65;1.55;;;21.30;95.30;;;;;;5100808;28;20408;-67
2022/05/09 10:43:13;;;;;;;5.68;1.45;;;21.50;95.20;;;;;;5100043;28;20119;-67
2022/05/09 10:45:48;;;;;;;2.95;1.00;;;21.70;95.10;;;;;;5100801;28;20032;-68
2022/05/09 10:48:59;;;;;;;2.70;1.15;;;21.90;94.70;;;;;;5099935;28;20020;-67
2022/05/09 10:51:46;;;;;;;2.97;1.20;;;22.20;94.00;;;;;;5064621;28;20044;-68
2022/05/09 10:54:39;;;;;;;3.53;1.15;;;22.90;93.70;;;;;;5101053;28;20347;-69
2022/05/09 10:57:16;;;;;;;3.42;1.42;;;24.70;93.40;;;;;;5100781;28;20111;-69
2022/05/09 10:59:44;;;;;;;2.50;1.40;;;24.70;88.90;;;;;;5100487;28;20032;-68
2022/05/09 11:02:33;;;;;;;3.67;1.40;;;24.00;89.90;;;;;;5099722;28;20300;-68
2022/05/09 11:05:00;;;;;;;5.10;1.50;;;25.40;87.40;;;;;;5100466;28;20318;-69
2022/05/09 11:07:30;;;;;;;3.78;1.60;;;27.50;80.70;;;;;;5100393;28;20043;-68
2022/05/09 11:10:37;;;;;;;3.83;1.30;;;29.00;75.70;;;;;;5100612;28;20020;-69
2022/05/09 11:13:19;;;;;;;4.40;1.70;;;30.20;69.50;;;;;;5100361;28;20020;-69
2022/05/09 11:16:08;;;;;;;2.67;1.15;;;30.70;64.50;;;;;;5100277;28;20042;-69
2022/05/09 11:19:14;;;;;;;3.45;1.70;;;30.50;62.10;;;;;;5100631;28;20039;-68
2022/05/09 11:22:03;;;;;;;4.38;1.90;;;29.70;62.40;;;;;;5100146;28;20027;-68
2022/05/09 11:25:05;;;;;;;4.18;1.40;;;27.80;65.10;;;;;;5100387;28;20046;-68
2022/05/09 11:27:57;;;;;;;5.40;1.35;;;29.90;63.10;;;;;;5100296;28;20265;-68
2022/05/09 11:30:53;;;;;;;3.57;1.60;;;31.80;60.20;;;;;;5100241;28;20120;-69
2022/05/09 11:33:35;;;;;;;4.32;1.70;;;33.30;55.40;;;;;;5097779;28;20036;-69
2022/05/09 11:36:27;;;;;;;6.07;1.73;;;34.20;52.40;;;;;;5099749;28;20035;-67
2022/05/09 11:39:02;;;;;;;3.03;1.67;;;34.30;52.00;;;;;;5091461;28;20089;-66
2022/05/09 11:41:30;;;;;;;;;;;33.80;50.10;;;;;;5099298;28;20040;-66
2022/05/09 11:44:05;;;;;;;5.70;1.70;;;32.20;51.20;;;;;;5099563;28;19926;-66
2022/05/09 11:46:42;;;;;;;3.97;1.42;;;32.40;50.60;;;;;;5099795;28;20024;-66
2022/05/09 11:49:21;;;;;;;3.58;1.50;;;33.20;51.00;;;;;;5099963;28;20488;-67
2022/05/09 11:51:56;;;;;;;4.38;1.73;;;34.60;49.90;;;;;;5098748;28;20269;-67
2022/05/09 11:54:30;;;;;;;5.43;2.58;;;34.80;48.70;;;;;;5099598;28;20430;-67
2022/05/09 11:57:31;;;;;;;6.57;2.50;;;34.00;49.20;;;;;;5099878;28;20383;-69
2022/05/09 12:00:05;;;;;;;5.78;2.50;;;34.30;49.00;;;;;;5070809;28;20063;-69
2022/05/09 12:02:45;;;;;;;5.57;3.03;;;32.20;51.50;;;;;;5098693;28;20443;-67
2022/05/09 12:05:26;;;;;;;4.55;2.60;;;31.70;51.30;;;;;;5099378;28;20017;-69
2022/05/09 12:08:21;;;;;;;7.13;2.55;;;31.90;52.60;;;;;;5099268;28;20099;-69
2022/05/09 12:11:12;;;;;;;4.22;2.60;;;32.00;51.70;;;;;;5099153;28;20036;-69
2022/05/09 12:13:41;;;;;;;4.22;2.50;;;32.90;49.70;;;;;;5098691;28;20028;-72
2022/05/09 12:16:07;;;;;;;6.05;2.40;;;34.80;47.80;;;;;;5100742;28;20035;-70
2022/05/09 12:18:51;;;;;;;5.80;2.40;;;35.90;46.90;;;;;;5099068;28;20039;-70
2022/05/09 12:21:22;;;;;;;7.03;2.40;;;36.80;45.70;;;;;;5099285;28;20303;-69
2022/05/09 12:24:07;;;;;;;4.20;2.30;;;35.80;46.70;;;;;;5098918;28;20119;-67
2022/05/09 12:26:35;;;;;;;5.13;3.05;;;35.90;45.90;;;;;;5098826;28;20404;-65
2022/05/09 12:29:17;;;;;;;4.93;3.17;;;33.90;47.30;;;;;;5098210;28;20447;-66
2022/05/09 12:31:54;;;;;;;7.75;2.88;;;32.50;50.50;;;;;;5098147;28;20039;-65
2022/05/09 12:34:42;;;;;;;4.60;3.50;;;31.00;53.00;;;;;;5098821;28;20107;-65
2022/05/09 12:37:17;;;;;;;6.65;3.60;;;32.30;51.60;;;;;;5097911;28;20024;-65
2022/05/09 12:39:52;;;;;;;7.70;3.70;;;32.50;51.80;;;;;;5099676;28;20103;-70
2022/05/09 12:42:46;;;;;;;6.82;3.22;;;33.80;49.90;;;;;;5098733;28;20031;-68
2022/05/09 12:45:14;;;;;;;7.13;4.10;;;34.70;48.70;;;;;;5091719;28;20043;-68
2022/05/09 12:47:41;;;;;;;6.65;3.13;;;35.20;47.70;;;;;;5098264;28;20437;-71
2022/05/09 12:50:13;;;;;;;5.85;3.70;;;36.30;46.80;;;;;;5100114;28;20105;-70
2022/05/09 12:52:50;;;;;;;4.63;3.33;;;36.30;45.80;;;;;;5101226;28;20036;-68
2022/05/09 12:58:19;;;;;;;5.90;3.83;;;35.60;47.10;;;;;;5097504;28;20383;-67
2022/05/09 13:00:45;;;;;;;8.05;4.13;;;35.10;46.80;;;;;;5099999;28;20304;-69
2022/05/09 13:03:12;;;;;;;5.10;3.00;;;36.50;45.40;;;;;;5098823;28;20046;-68
2022/05/09 13:05:41;;;;;;;6.13;2.95;;;37.40;45.60;;;;;;5097322;28;20395;-68
2022/05/09 13:08:08;;;;;;;3.78;3.08;;;36.50;45.10;;;;;;5098354;28;20028;-68
2022/05/09 13:10:46;;;;;;;8.35;2.65;;;36.30;45.20;;;;;;5098683;28;20030;-68
2022/05/09 13:13:22;;;;;;;5.65;3.08;;;37.10;45.10;;;;;;5098046;28;20085;-68
2022/05/09 13:15:48;;;;;;;4.50;3.17;;;37.70;43.30;;;;;;5097959;28;20101;-68
2022/05/09 13:18:22;;;;;;;5.45;3.10;;;36.40;44.70;;;;;;5098019;28;20394;-68
2022/05/09 13:20:58;;;;;;;7.32;2.80;;;38.50;43.70;;;;;;5098010;28;20115;-68